Time;durP1;ratioP1;P1;durP2;ratioP2;P2;SDS_P1;SDS_P2;PMS_P1;PMS_P2;Temp;Humidity;BMP_temperature;BMP_pressure;BME280_temperature;BME280_humidity;BME280_pressure;Samples;Min_cycle;Max_cycle;Signal;HPM_P1;HPM_P2
2020/12/10 00:00:56;;;;;;;56.45;28.33;;;5.10;99.90;;;;;;5034987;28;20032;-63
2020/12/10 00:03:22;;;;;;;63.70;30.05;;;5.10;99.90;;;;;;5028808;28;20041;-63
2020/12/10 00:05:48;;;;;;;60.72;30.02;;;5.10;99.90;;;;;;5034007;28;20443;-62
2020/12/10 00:08:13;;;;;;;59.00;29.63;;;5.10;99.90;;;;;;5034623;28;20482;-63
2020/12/10 00:10:39;;;;;;;54.80;29.05;;;5.20;99.90;;;;;;5035558;28;20108;-63
2020/12/10 00:13:08;;;;;;;65.03;31.55;;;5.10;99.90;;;;;;5032519;28;20155;-63
2020/12/10 00:15:33;;;;;;;68.03;32.78;;;5.10;99.90;;;;;;5033117;28;20029;-63
2020/12/10 00:17:59;;;;;;;62.60;31.00;;;5.10;99.90;;;;;;5036308;28;20038;-63
2020/12/10 00:20:25;;;;;;;63.42;31.80;;;5.10;99.90;;;;;;5035343;28;20119;-63
2020/12/10 00:22:51;;;;;;;64.20;30.67;;;5.10;99.90;;;;;;5033783;28;20032;-63
2020/12/10 00:25:17;;;;;;;63.90;31.58;;;5.20;99.90;;;;;;5031868;28;20025;-63
2020/12/10 00:27:42;;;;;;;62.72;32.58;;;5.10;99.90;;;;;;5035165;28;20037;-63
2020/12/10 00:30:09;;;;;;;58.38;30.98;;;5.10;99.90;;;;;;5035617;28;20327;-63
2020/12/10 00:32:36;;;;;;;66.20;30.48;;;5.10;99.90;;;;;;5035636;28;20047;-63
2020/12/10 00:35:03;;;;;;;63.45;30.40;;;5.10;99.90;;;;;;5029058;28;20025;-63
2020/12/10 00:37:32;;;;;;;62.08;30.88;;;5.10;99.90;;;;;;5036077;28;20049;-63
2020/12/10 00:39:58;;;;;;;62.55;29.58;;;5.20;99.90;;;;;;5032307;28;20040;-63
2020/12/10 00:42:24;;;;;;;65.15;31.15;;;5.20;99.90;;;;;;5028340;28;20140;-63
2020/12/10 00:44:50;;;;;;;61.08;32.20;;;5.20;99.90;;;;;;5016262;28;20025;-63
2020/12/10 00:47:19;;;;;;;69.95;33.17;;;5.20;99.90;;;;;;5034518;28;20577;-63
2020/12/10 00:49:46;;;;;;;71.43;34.37;;;5.20;99.90;;;;;;5030926;28;20104;-63
2020/12/10 00:52:12;;;;;;;73.80;34.75;;;5.20;99.90;;;;;;5034072;28;20496;-63
2020/12/10 00:54:38;;;;;;;65.75;30.65;;;5.30;99.90;;;;;;5031982;28;20028;-63
2020/12/10 00:57:08;;;;;;;78.55;33.85;;;5.30;99.90;;;;;;5034958;28;20041;-63
2020/12/10 00:59:34;;;;;;;86.30;37.67;;;5.20;99.90;;;;;;5013973;28;20040;-63
2020/12/10 01:02:00;;;;;;;78.53;35.78;;;5.20;99.90;;;;;;5031154;28;20045;-63
2020/12/10 01:04:26;;;;;;;89.68;38.60;;;5.20;99.90;;;;;;5033310;28;20029;-63
2020/12/10 01:06:51;;;;;;;98.97;38.38;;;5.10;99.90;;;;;;5010855;28;20033;-63
2020/12/10 01:09:17;;;;;;;93.38;39.25;;;5.00;99.90;;;;;;5034602;28;20029;-63
2020/12/10 01:11:43;;;;;;;92.65;39.03;;;5.00;99.90;;;;;;5032244;28;20515;-63
2020/12/10 01:14:09;;;;;;;93.05;39.53;;;5.10;99.90;;;;;;5029870;28;20148;-63
2020/12/10 01:16:35;;;;;;;86.35;36.05;;;5.00;99.90;;;;;;5033990;28;20035;-63
2020/12/10 01:19:01;;;;;;;93.47;39.83;;;5.10;99.90;;;;;;5033327;28;20045;-63
2020/12/10 01:21:31;;;;;;;92.45;38.00;;;5.10;99.90;;;;;;5032876;28;20045;-63
2020/12/10 01:23:57;;;;;;;97.43;39.25;;;5.20;99.90;;;;;;5033495;28;20497;-63
2020/12/10 01:26:25;;;;;;;85.38;38.63;;;5.20;99.90;;;;;;5034024;28;20044;-63
2020/12/10 01:28:51;;;;;;;89.40;38.75;;;5.10;99.90;;;;;;5033177;28;20496;-63
2020/12/10 01:31:17;;;;;;;96.65;42.15;;;5.10;99.90;;;;;;5033479;28;20044;-63
2020/12/10 01:33:43;;;;;;;93.57;40.25;;;5.10;99.90;;;;;;5032985;28;20032;-63
2020/12/10 01:36:08;;;;;;;94.35;40.03;;;5.10;99.90;;;;;;5030544;28;20486;-63
2020/12/10 01:38:34;;;;;;;86.65;39.92;;;5.00;99.90;;;;;;5029539;28;20213;-63
2020/12/10 01:41:00;;;;;;;104.65;43.78;;;5.00;99.90;;;;;;5014598;28;20151;-63
2020/12/10 01:43:26;;;;;;;113.63;45.63;;;4.90;99.90;;;;;;5030388;28;20124;-63
2020/12/10 01:45:52;;;;;;;103.43;45.80;;;5.00;99.90;;;;;;5034644;28;20400;-63
2020/12/10 01:48:17;;;;;;;121.90;47.83;;;4.90;99.90;;;;;;5033809;28;20064;-63
2020/12/10 01:50:43;;;;;;;115.82;45.50;;;4.80;99.90;;;;;;5031378;28;20083;-64
2020/12/10 01:53:09;;;;;;;118.85;47.85;;;4.80;99.90;;;;;;5031903;28;20021;-63
2020/12/10 01:55:35;;;;;;;122.22;47.40;;;4.90;99.90;;;;;;5035429;28;20480;-62
2020/12/10 01:58:01;;;;;;;128.80;47.63;;;4.80;99.90;;;;;;5035227;28;20029;-63
2020/12/10 02:00:27;;;;;;;136.35;50.25;;;4.80;99.90;;;;;;5032770;28;20615;-63
2020/12/10 02:02:57;;;;;;;135.25;49.60;;;4.80;99.90;;;;;;5032154;28;20041;-63
2020/12/10 02:05:23;;;;;;;132.07;51.38;;;4.80;99.90;;;;;;5025560;28;20040;-63
2020/12/10 02:07:49;;;;;;;150.52;54.08;;;4.70;99.90;;;;;;5031643;28;20580;-63
2020/12/10 02:10:15;;;;;;;141.18;51.17;;;4.70;99.90;;;;;;5030064;28;20049;-63
2020/12/10 02:12:41;;;;;;;167.20;56.50;;;4.70;99.90;;;;;;5035073;28;20136;-63
2020/12/10 02:15:08;;;;;;;143.13;52.67;;;4.70;99.90;;;;;;5012568;28;20472;-62
2020/12/10 02:17:34;;;;;;;153.32;54.25;;;4.80;99.90;;;;;;5030958;28;20422;-63
2020/12/10 02:20:00;;;;;;;150.02;53.53;;;4.80;99.90;;;;;;5034450;28;20033;-63
2020/12/10 02:22:26;;;;;;;159.00;56.78;;;4.70;99.90;;;;;;5037088;28;20060;-63
2020/12/10 02:24:52;;;;;;;159.30;53.70;;;4.70;99.90;;;;;;5034977;28;20472;-63
2020/12/10 02:27:18;;;;;;;162.07;54.08;;;4.70;99.90;;;;;;5033522;28;20033;-63
2020/12/10 02:29:44;;;;;;;154.43;54.35;;;4.70;99.90;;;;;;5038291;28;20391;-63
2020/12/10 02:32:10;;;;;;;163.75;55.30;;;4.70;99.90;;;;;;5035900;28;20037;-63
2020/12/10 02:34:35;;;;;;;148.65;50.67;;;4.70;99.90;;;;;;5034887;28;20021;-63
2020/12/10 02:37:01;;;;;;;147.35;51.38;;;4.60;99.90;;;;;;5033146;28;20496;-63
2020/12/10 02:39:27;;;;;;;155.18;54.53;;;4.70;99.90;;;;;;5035083;28;20777;-63
2020/12/10 02:41:53;;;;;;;147.45;53.10;;;4.70;99.90;;;;;;5029298;28;20032;-63
2020/12/10 02:44:18;;;;;;;154.52;54.00;;;4.80;99.90;;;;;;5033244;28;20025;-63
2020/12/10 02:46:44;;;;;;;144.23;51.25;;;4.80;99.90;;;;;;5017652;28;20452;-62
2020/12/10 02:49:10;;;;;;;142.82;52.50;;;4.90;99.90;;;;;;5016235;28;20033;-63
2020/12/10 02:51:36;;;;;;;136.10;51.30;;;4.90;99.90;;;;;;5035446;28;20037;-63
2020/12/10 02:54:02;;;;;;;135.73;49.28;;;4.90;99.90;;;;;;5035692;28;20067;-63
2020/12/10 02:56:28;;;;;;;143.82;50.75;;;4.90;99.90;;;;;;5036125;28;20032;-63
2020/12/10 02:58:54;;;;;;;140.40;51.17;;;4.90;99.90;;;;;;5034820;28;20059;-63
2020/12/10 03:01:19;;;;;;;142.40;52.13;;;4.90;99.90;;;;;;5035523;28;20400;-63
2020/12/10 03:03:45;;;;;;;129.68;51.05;;;4.80;99.90;;;;;;5034910;28;20037;-63
2020/12/10 03:06:11;;;;;;;129.00;50.13;;;4.90;99.90;;;;;;5031129;28;20048;-63
2020/12/10 03:08:40;;;;;;;148.32;51.33;;;4.90;99.90;;;;;;5032303;28;20037;-63
2020/12/10 03:11:06;;;;;;;144.45;53.30;;;5.00;99.90;;;;;;5009738;28;20170;-63
2020/12/10 03:13:32;;;;;;;138.93;52.28;;;4.90;99.90;;;;;;5035076;28;20037;-63
2020/12/10 03:15:58;;;;;;;138.07;51.08;;;4.90;99.90;;;;;;5036168;28;20044;-63
2020/12/10 03:18:25;;;;;;;132.07;51.90;;;5.00;99.90;;;;;;5036045;28;20037;-63
2020/12/10 03:20:52;;;;;;;148.10;54.10;;;4.90;99.90;;;;;;5034478;28;20037;-63
2020/12/10 03:23:18;;;;;;;136.25;53.20;;;4.90;99.90;;;;;;5033443;28;20417;-63
2020/12/10 03:25:44;;;;;;;130.55;50.67;;;4.90;99.90;;;;;;5033282;28;20039;-63
2020/12/10 03:28:10;;;;;;;125.25;49.45;;;4.90;99.90;;;;;;5035345;28;20051;-63
2020/12/10 03:30:36;;;;;;;131.45;51.50;;;5.00;99.90;;;;;;5037129;28;20383;-63
2020/12/10 03:33:02;;;;;;;133.80;49.80;;;5.00;99.90;;;;;;5027627;28;20385;-63
2020/12/10 03:35:28;;;;;;;120.28;48.88;;;5.00;99.90;;;;;;5035107;28;20116;-63
2020/12/10 03:37:54;;;;;;;131.23;50.38;;;4.90;99.90;;;;;;5034677;28;20150;-63
2020/12/10 03:40:20;;;;;;;122.45;49.33;;;5.00;99.90;;;;;;5029116;28;20041;-63
2020/12/10 03:42:46;;;;;;;133.65;51.13;;;5.10;99.90;;;;;;5034638;28;20032;-63
2020/12/10 03:45:12;;;;;;;122.03;49.10;;;4.90;99.90;;;;;;5033063;28;20035;-63
2020/12/10 03:47:37;;;;;;;122.80;50.10;;;4.90;99.90;;;;;;5035238;28;20051;-63
2020/12/10 03:50:05;;;;;;;122.90;52.45;;;5.00;99.90;;;;;;5031961;28;21314;-64
2020/12/10 03:52:31;;;;;;;133.20;51.95;;;5.00;99.90;;;;;;5033381;28;20499;-63
2020/12/10 03:54:56;;;;;;;120.68;51.10;;;5.00;99.90;;;;;;5033116;28;20036;-63
2020/12/10 03:57:22;;;;;;;131.38;53.35;;;4.90;99.90;;;;;;5036500;28;20039;-63
2020/12/10 03:59:48;;;;;;;113.63;46.95;;;4.90;99.90;;;;;;5034810;28;20034;-63
2020/12/10 04:02:14;;;;;;;129.13;49.75;;;5.00;99.90;;;;;;5033190;28;20085;-63
2020/12/10 04:04:39;;;;;;;132.00;51.92;;;5.00;99.90;;;;;;5031974;28;20082;-63
2020/12/10 04:07:05;;;;;;;132.23;53.08;;;5.00;99.90;;;;;;5034218;28;20044;-63
2020/12/10 04:09:31;;;;;;;118.47;49.00;;;5.00;99.90;;;;;;5034863;28;20048;-63
2020/12/10 04:11:57;;;;;;;116.03;46.28;;;5.10;99.90;;;;;;5035456;28;20033;-63
2020/12/10 04:14:23;;;;;;;106.03;43.58;;;5.10;99.90;;;;;;5035690;28;20860;-63
2020/12/10 04:16:48;;;;;;;103.47;41.20;;;5.10;99.90;;;;;;5031092;28;20020;-63
2020/12/10 04:19:14;;;;;;;104.22;41.55;;;5.00;99.90;;;;;;5032056;28;20116;-63
2020/12/10 04:21:40;;;;;;;102.50;39.95;;;5.10;99.90;;;;;;5034154;28;20029;-63
2020/12/10 04:24:06;;;;;;;89.78;38.88;;;5.00;99.90;;;;;;5025975;28;20033;-63
2020/12/10 04:26:32;;;;;;;88.90;38.28;;;5.00;99.90;;;;;;5025275;28;20537;-63
2020/12/10 04:28:57;;;;;;;73.63;35.25;;;5.00;99.90;;;;;;5014158;28;20039;-63
2020/12/10 04:31:23;;;;;;;83.45;34.75;;;5.00;99.90;;;;;;5026525;28;20036;-63
2020/12/10 04:33:49;;;;;;;86.97;36.30;;;4.90;99.90;;;;;;5032775;28;20032;-63
2020/12/10 04:36:15;;;;;;;75.85;33.55;;;4.80;99.90;;;;;;5026080;28;20083;-63
2020/12/10 04:38:41;;;;;;;74.18;33.38;;;4.90;99.90;;;;;;5030853;28;20595;-63
2020/12/10 04:41:08;;;;;;;69.05;31.13;;;4.80;99.90;;;;;;5031939;28;20535;-62
2020/12/10 04:43:34;;;;;;;74.95;32.00;;;4.90;99.90;;;;;;5029347;28;20483;-63
2020/12/10 04:46:05;;;;;;;65.32;31.33;;;4.90;99.90;;;;;;5030346;28;20037;-62
2020/12/10 04:48:35;;;;;;;70.90;30.08;;;4.90;99.90;;;;;;5019976;28;20049;-63
2020/12/10 04:51:04;;;;;;;75.95;30.85;;;4.80;99.90;;;;;;5026881;28;20025;-63
2020/12/10 04:53:31;;;;;;;69.07;30.75;;;4.80;99.90;;;;;;5034587;28;20041;-68
2020/12/10 04:55:58;;;;;;;80.15;33.35;;;4.70;99.90;;;;;;5025860;28;20401;-67
2020/12/10 04:58:24;;;;;;;71.72;30.55;;;4.70;99.90;;;;;;5008096;28;20021;-66
2020/12/10 05:01:01;;;;;;;77.07;30.63;;;4.70;99.90;;;;;;5020476;28;20460;-66
2020/12/10 05:06:57;;;;;;;69.97;30.67;;;4.80;99.90;;;;;;5021783;28;20529;-66
2020/12/10 05:09:23;;;;;;;77.70;31.35;;;4.90;99.90;;;;;;5029753;28;20048;-66
2020/12/10 05:11:49;;;;;;;78.97;32.17;;;4.80;99.90;;;;;;5023761;28;20033;-65
2020/12/10 05:14:15;;;;;;;74.45;32.50;;;4.90;99.90;;;;;;5026914;28;20098;-66
2020/12/10 05:16:41;;;;;;;75.47;33.00;;;4.90;99.90;;;;;;5027408;28;20056;-67
2020/12/10 05:19:20;;;;;;;84.57;34.10;;;4.80;99.90;;;;;;5020987;28;20037;-67
2020/12/10 05:22:06;;;;;;;76.63;31.42;;;4.80;99.90;;;;;;5027520;28;20021;-66
2020/12/10 05:24:32;;;;;;;87.60;31.35;;;4.80;99.90;;;;;;5013439;28;20037;-67
2020/12/10 05:27:20;;;;;;;84.72;32.75;;;4.80;99.90;;;;;;5028771;28;20093;-67
2020/12/10 05:29:47;;;;;;;80.03;32.22;;;4.90;99.90;;;;;;5030330;28;20025;-67
2020/12/10 05:32:35;;;;;;;81.03;33.65;;;4.90;99.90;;;;;;5035009;28;20102;-66
2020/12/10 05:35:13;;;;;;;77.68;32.08;;;4.90;99.90;;;;;;5033431;28;20066;-67
2020/12/10 05:37:40;;;;;;;85.63;32.90;;;4.90;99.90;;;;;;5028264;28;20454;-67
2020/12/10 05:40:06;;;;;;;87.68;35.67;;;4.90;99.90;;;;;;5029416;28;20035;-67
2020/12/10 05:42:36;;;;;;;82.63;32.17;;;4.80;99.90;;;;;;5031321;28;20033;-67
2020/12/10 05:45:18;;;;;;;95.97;34.08;;;4.90;99.90;;;;;;5032762;28;20043;-66
2020/12/10 05:47:45;;;;;;;89.65;33.83;;;4.90;99.90;;;;;;5031572;28;20556;-67
2020/12/10 05:50:13;;;;;;;87.40;34.15;;;4.90;99.90;;;;;;5029276;28;20037;-66
2020/12/10 05:52:44;;;;;;;84.07;33.35;;;4.90;99.90;;;;;;5024717;28;20025;-66
2020/12/10 05:55:10;;;;;;;96.13;34.38;;;4.90;99.90;;;;;;5029449;28;20024;-67
2020/12/10 05:57:41;;;;;;;82.72;32.22;;;5.00;99.90;;;;;;5029484;28;20033;-67
2020/12/10 06:00:07;;;;;;;81.82;33.63;;;4.90;99.90;;;;;;5012403;28;20041;-67
2020/12/10 06:02:35;;;;;;;82.93;34.00;;;4.80;99.90;;;;;;5020086;28;20025;-67
2020/12/10 06:05:02;;;;;;;86.65;34.03;;;4.90;99.90;;;;;;5036507;28;20040;-67
2020/12/10 06:07:28;;;;;;;96.05;36.08;;;4.90;99.90;;;;;;5035824;28;20045;-66
2020/12/10 06:09:54;;;;;;;89.75;33.90;;;4.90;99.90;;;;;;5031448;28;20091;-67
2020/12/10 06:12:24;;;;;;;81.43;33.83;;;4.90;99.90;;;;;;5038422;28;20028;-67
2020/12/10 06:14:54;;;;;;;94.45;34.58;;;5.00;99.90;;;;;;5032571;28;20048;-67
2020/12/10 06:17:21;;;;;;;85.35;34.67;;;5.00;99.90;;;;;;5035166;28;20044;-67
2020/12/10 06:19:47;;;;;;;92.65;34.08;;;4.90;99.90;;;;;;5035653;28;20574;-67
2020/12/10 06:22:26;;;;;;;89.05;34.28;;;4.90;99.90;;;;;;5033592;28;20035;-67
2020/12/10 06:24:56;;;;;;;94.95;35.70;;;4.90;99.90;;;;;;5034364;28;20025;-67
2020/12/10 06:27:33;;;;;;;86.63;33.05;;;4.90;99.90;;;;;;5021600;28;20631;-67
2020/12/10 06:30:19;;;;;;;92.72;34.30;;;4.80;99.90;;;;;;5037547;28;20047;-67
2020/12/10 06:32:52;;;;;;;84.43;35.03;;;4.80;99.90;;;;;;5036233;28;20480;-67
2020/12/10 06:35:26;;;;;;;94.57;34.95;;;4.80;99.90;;;;;;5038892;28;20045;-67
2020/12/10 06:37:52;;;;;;;90.38;33.88;;;4.80;99.90;;;;;;5037642;28;20819;-67
2020/12/10 06:40:30;;;;;;;96.90;35.83;;;4.80;99.90;;;;;;5037369;28;20037;-66
2020/12/10 06:42:56;;;;;;;96.90;36.25;;;4.80;99.90;;;;;;5034762;28;20029;-66
2020/12/10 06:45:39;;;;;;;99.95;36.00;;;4.90;99.90;;;;;;5029874;28;20037;-67
2020/12/10 06:48:06;;;;;;;95.45;33.88;;;4.80;99.90;;;;;;5029446;28;20044;-66
2020/12/10 06:50:36;;;;;;;91.13;35.00;;;4.80;99.90;;;;;;5037782;28;20028;-67
2020/12/10 06:53:08;;;;;;;;;;;4.90;99.90;;;;;;5038330;28;20025;-67
2020/12/10 06:55:54;;;;;;;90.60;34.40;;;4.90;99.90;;;;;;5037150;28;20858;-66
2020/12/10 06:58:20;;;;;;;93.63;36.15;;;4.90;99.90;;;;;;5037054;28;20125;-67
2020/12/10 07:00:49;;;;;;;92.10;35.65;;;4.90;99.90;;;;;;5019013;28;20391;-66
2020/12/10 07:03:24;;;;;;;103.93;38.83;;;4.90;99.90;;;;;;5037748;28;20017;-66
2020/12/10 07:05:50;;;;;;;111.80;37.22;;;4.80;99.90;;;;;;5037708;28;20048;-66
2020/12/10 07:08:17;;;;;;;102.25;36.83;;;4.90;99.90;;;;;;5037056;28;20032;-66
2020/12/10 07:10:45;;;;;;;102.22;37.63;;;4.90;99.90;;;;;;5038021;28;20021;-66
2020/12/10 07:13:14;;;;;;;100.85;35.95;;;4.90;99.90;;;;;;5029380;28;20044;-67
2020/12/10 07:15:40;;;;;;;102.85;37.17;;;4.80;99.90;;;;;;5038456;28;20033;-66
2020/12/10 07:18:06;;;;;;;106.00;39.13;;;4.90;99.90;;;;;;5039131;28;20040;-67
2020/12/10 07:20:33;;;;;;;98.60;36.65;;;4.80;99.90;;;;;;5038298;28;20033;-67
2020/12/10 07:23:01;;;;;;;105.47;40.13;;;4.80;99.90;;;;;;5019567;28;20036;-66
2020/12/10 07:25:26;;;;;;;108.80;36.72;;;4.80;99.90;;;;;;5039202;28;20431;-66
2020/12/10 07:27:53;;;;;;;101.50;38.13;;;4.80;99.90;;;;;;5036643;28;20042;-66
2020/12/10 07:30:23;;;;;;;115.30;41.38;;;4.80;99.90;;;;;;5038704;28;20612;-66
2020/12/10 07:32:52;;;;;;;104.32;38.92;;;4.80;99.90;;;;;;5039008;28;20037;-67
2020/12/10 07:35:36;;;;;;;105.97;39.03;;;4.80;99.90;;;;;;5037498;28;20025;-67
2020/12/10 07:38:13;;;;;;;103.68;40.30;;;4.80;99.90;;;;;;5033550;28;20408;-66
2020/12/10 07:40:40;;;;;;;94.65;39.05;;;4.90;99.90;;;;;;5037816;28;20131;-66
2020/12/10 07:43:08;;;;;;;107.00;40.33;;;4.90;99.90;;;;;;5031934;28;20017;-66
2020/12/10 07:45:35;;;;;;;111.45;40.13;;;5.00;99.90;;;;;;5033803;28;20129;-66
2020/12/10 07:48:04;;;;;;;89.28;37.10;;;4.90;99.90;;;;;;5037032;28;20045;-66
2020/12/10 07:50:32;;;;;;;107.43;37.88;;;4.90;99.90;;;;;;5036531;28;20032;-66
2020/12/10 07:53:04;;;;;;;106.68;38.05;;;5.00;99.90;;;;;;5037507;28;20114;-67
2020/12/10 07:55:33;;;;;;;112.88;40.22;;;4.90;99.90;;;;;;5020379;28;20020;-66
2020/12/10 07:58:17;;;;;;;98.93;38.67;;;4.90;99.90;;;;;;5038283;28;20024;-66
2020/12/10 08:00:46;;;;;;;111.30;36.92;;;4.90;99.90;;;;;;5037079;28;20037;-66
2020/12/10 08:03:42;;;;;;;111.18;38.92;;;4.80;99.90;;;;;;5034288;28;20361;-66
2020/12/10 08:06:09;;;;;;;110.65;40.90;;;4.80;99.90;;;;;;5037312;28;20037;-66
2020/12/10 08:08:46;;;;;;;118.38;39.78;;;4.80;99.90;;;;;;5037116;28;20045;-67
2020/12/10 08:11:19;;;;;;;123.38;41.35;;;4.90;99.90;;;;;;5037546;28;20066;-67
2020/12/10 08:13:58;;;;;;;107.13;39.40;;;4.90;99.90;;;;;;5033880;28;20079;-67
2020/12/10 08:16:34;;;;;;;118.40;42.07;;;4.80;99.90;;;;;;5037531;28;20036;-67
2020/12/10 08:19:19;;;;;;;114.40;42.03;;;4.90;99.90;;;;;;5037442;28;20414;-67
2020/12/10 08:21:48;;;;;;;126.70;43.28;;;4.90;99.90;;;;;;5035528;28;20030;-66
2020/12/10 08:24:14;;;;;;;119.68;41.53;;;4.90;99.90;;;;;;5036388;28;20041;-67
2020/12/10 08:26:41;;;;;;;121.45;41.33;;;4.80;99.90;;;;;;5018798;28;20068;-66
2020/12/10 08:29:13;;;;;;;122.20;41.00;;;4.80;99.90;;;;;;5037005;28;20043;-66
2020/12/10 08:31:39;;;;;;;115.40;39.47;;;4.80;99.90;;;;;;5037216;28;20035;-66
2020/12/10 08:34:16;;;;;;;109.97;37.47;;;4.80;99.90;;;;;;5033679;28;20033;-66
2020/12/10 08:36:43;;;;;;;118.05;39.40;;;4.70;99.90;;;;;;5034646;28;20041;-66
2020/12/10 08:39:08;;;;;;;93.15;35.53;;;4.80;99.90;;;;;;5037629;28;20056;-67
2020/12/10 08:41:35;;;;;;;94.20;34.70;;;4.70;99.90;;;;;;5036243;28;20393;-66
2020/12/10 08:44:07;;;;;;;92.95;32.88;;;4.70;99.90;;;;;;5035285;28;20037;-67
2020/12/10 08:46:35;;;;;;;66.15;27.83;;;4.70;99.90;;;;;;5035858;28;20027;-66
2020/12/10 08:49:20;;;;;;;58.65;25.55;;;4.70;99.90;;;;;;5037222;28;20155;-66
2020/12/10 08:51:48;;;;;;;49.72;22.67;;;4.60;99.90;;;;;;5035661;28;20032;-66
2020/12/10 08:54:15;;;;;;;46.28;19.90;;;4.60;99.90;;;;;;5035087;28;20033;-67
2020/12/10 08:56:41;;;;;;;38.45;19.33;;;4.60;99.90;;;;;;5034930;28;20424;-66
2020/12/10 08:59:07;;;;;;;34.35;17.52;;;4.50;99.90;;;;;;5036976;28;20431;-66
2020/12/10 09:01:34;;;;;;;24.52;13.35;;;4.50;99.90;;;;;;5036327;28;20040;-66
2020/12/10 09:04:01;;;;;;;22.67;13.18;;;4.50;99.90;;;;;;5035777;28;20032;-66
2020/12/10 09:06:37;;;;;;;23.15;12.85;;;4.40;99.90;;;;;;5035217;28;20047;-66
2020/12/10 09:09:04;;;;;;;24.33;14.27;;;4.40;99.90;;;;;;5036395;28;20064;-66
2020/12/10 09:11:30;;;;;;;28.25;16.17;;;4.40;99.90;;;;;;5036207;28;20029;-67
2020/12/10 09:13:59;;;;;;;28.52;14.88;;;4.40;99.90;;;;;;5034451;28;20123;-66
2020/12/10 09:16:28;;;;;;;25.17;13.93;;;4.50;99.90;;;;;;5017590;28;20116;-66
2020/12/10 09:18:54;;;;;;;22.50;13.25;;;4.50;99.90;;;;;;5036493;28;20040;-66
2020/12/10 09:21:20;;;;;;;24.52;12.95;;;4.40;99.90;;;;;;5037392;28;20028;-66
2020/12/10 09:23:46;;;;;;;21.08;12.43;;;4.30;99.90;;;;;;5035706;28;20551;-66
2020/12/10 09:26:14;;;;;;;18.15;11.00;;;4.30;99.90;;;;;;5036313;28;20807;-66
2020/12/10 09:28:40;;;;;;;18.58;11.05;;;4.30;99.90;;;;;;5039928;28;20090;-67
2020/12/10 09:31:06;;;;;;;21.63;9.73;;;4.20;99.90;;;;;;5038666;28;20025;-67
2020/12/10 09:33:33;;;;;;;17.10;9.63;;;4.10;99.90;;;;;;5039703;28;20446;-67
2020/12/10 09:35:59;;;;;;;16.88;9.45;;;4.10;99.90;;;;;;5021971;28;20523;-66
2020/12/10 09:38:25;;;;;;;13.55;7.85;;;4.10;99.90;;;;;;5039633;28;20091;-66
2020/12/10 09:40:51;;;;;;;14.25;8.05;;;4.00;99.90;;;;;;5035910;28;20033;-66
2020/12/10 09:43:17;;;;;;;15.02;8.35;;;4.00;99.90;;;;;;5038162;28;20075;-66
2020/12/10 09:45:47;;;;;;;15.20;8.93;;;3.90;99.90;;;;;;5039571;28;20052;-67
2020/12/10 09:48:13;;;;;;;13.82;8.48;;;4.00;99.90;;;;;;5041152;28;20375;-67
2020/12/10 09:50:39;;;;;;;16.85;9.07;;;4.00;99.90;;;;;;5039988;28;20434;-66
2020/12/10 09:53:11;;;;;;;14.45;9.20;;;4.00;99.90;;;;;;5039102;28;20036;-66
2020/12/10 09:58:09;;;;;;;14.88;8.18;;;4.10;99.90;;;;;;5040792;28;20029;-67
2020/12/10 10:00:35;;;;;;;15.13;9.02;;;4.00;99.90;;;;;;5037843;28;20041;-66
2020/12/10 10:03:06;;;;;;;10.82;7.07;;;4.10;99.90;;;;;;5039572;28;20083;-66
2020/12/10 10:05:35;;;;;;;15.85;8.00;;;4.00;99.90;;;;;;5039336;28;20032;-66
2020/12/10 10:08:01;;;;;;;13.70;7.13;;;4.10;99.90;;;;;;5040011;28;20132;-66
2020/12/10 10:10:27;;;;;;;12.35;6.80;;;3.90;99.90;;;;;;5040852;28;20202;-66
2020/12/10 10:12:54;;;;;;;14.77;6.85;;;3.90;99.90;;;;;;5039106;28;20373;-67
2020/12/10 10:15:22;;;;;;;11.93;6.93;;;3.90;99.90;;;;;;5039555;28;20025;-66
2020/12/10 10:17:48;;;;;;;13.05;6.93;;;3.80;99.90;;;;;;5038760;28;20162;-65
2020/12/10 10:20:15;;;;;;;12.23;7.10;;;3.70;99.90;;;;;;5039696;28;20025;-67
2020/12/10 10:22:41;;;;;;;12.57;7.90;;;3.70;99.90;;;;;;5039968;28;20541;-67
2020/12/10 10:25:07;;;;;;;13.13;7.45;;;3.70;99.90;;;;;;5038436;28;20031;-66
2020/12/10 10:27:33;;;;;;;16.13;9.05;;;3.80;99.90;;;;;;5039989;28;20039;-66
2020/12/10 10:29:59;;;;;;;14.35;8.27;;;3.80;99.90;;;;;;5039189;28;20067;-67
2020/12/10 10:32:25;;;;;;;12.63;7.80;;;3.80;99.90;;;;;;5039829;28;20234;-66
2020/12/10 10:34:51;;;;;;;14.25;8.75;;;3.80;99.90;;;;;;5037757;28;20488;-67
2020/12/10 10:37:17;;;;;;;14.77;8.40;;;3.90;99.90;;;;;;5034814;28;20053;-66
2020/12/10 10:39:43;;;;;;;19.92;9.80;;;3.90;99.90;;;;;;5038707;28;20514;-67
2020/12/10 10:42:09;;;;;;;17.48;10.35;;;3.90;99.90;;;;;;5038739;28;20025;-67
2020/12/10 10:44:35;;;;;;;19.55;10.93;;;3.90;99.90;;;;;;5036590;28;20116;-66
2020/12/10 10:47:00;;;;;;;19.38;11.82;;;4.00;99.90;;;;;;5037745;28;20163;-66
2020/12/10 10:49:26;;;;;;;18.48;11.57;;;4.00;99.90;;;;;;5039420;28;20124;-67
2020/12/10 10:51:52;;;;;;;18.80;11.25;;;3.90;99.90;;;;;;5038266;28;20037;-66
2020/12/10 10:54:18;;;;;;;21.65;11.70;;;4.10;99.90;;;;;;5037778;28;20033;-67
2020/12/10 10:56:44;;;;;;;23.48;13.13;;;4.10;99.90;;;;;;5039289;28;20033;-66
2020/12/10 10:59:09;;;;;;;23.88;13.13;;;4.10;99.90;;;;;;5038103;28;20044;-67
2020/12/10 11:01:35;;;;;;;21.98;13.32;;;4.10;99.90;;;;;;5039157;28;20021;-66
2020/12/10 11:04:01;;;;;;;26.10;13.95;;;4.20;99.90;;;;;;5038483;28;20458;-66
2020/12/10 11:06:27;;;;;;;20.55;12.38;;;4.20;99.90;;;;;;5039230;28;20036;-67
2020/12/10 11:08:53;;;;;;;24.25;13.48;;;4.30;99.90;;;;;;5019216;28;20083;-67
2020/12/10 11:11:20;;;;;;;21.63;13.35;;;4.30;99.90;;;;;;5037261;28;20025;-67
2020/12/10 11:13:47;;;;;;;20.20;12.95;;;4.30;99.90;;;;;;5037097;28;20538;-66
2020/12/10 11:16:14;;;;;;;20.45;12.07;;;4.30;99.90;;;;;;5038542;28;20377;-67
2020/12/10 11:18:43;;;;;;;20.75;12.18;;;4.20;99.90;;;;;;5038922;28;20029;-67
2020/12/10 11:21:10;;;;;;;16.17;10.63;;;4.20;99.90;;;;;;5037288;28;20638;-67
2020/12/10 11:23:38;;;;;;;21.90;12.25;;;4.20;99.90;;;;;;5038223;28;20443;-67
2020/12/10 11:26:04;;;;;;;18.42;11.38;;;4.20;99.90;;;;;;5038343;28;20464;-67
2020/12/10 11:28:30;;;;;;;25.33;13.90;;;4.20;99.90;;;;;;5038462;28;20028;-67
2020/12/10 11:30:56;;;;;;;25.65;14.15;;;4.20;99.90;;;;;;5036963;28;20021;-67
2020/12/10 11:33:22;;;;;;;22.90;13.82;;;4.20;99.90;;;;;;5035912;28;20104;-67
2020/12/10 11:35:48;;;;;;;23.35;15.15;;;4.20;99.90;;;;;;5037555;28;20424;-68
2020/12/10 11:38:14;;;;;;;22.13;12.18;;;4.20;99.90;;;;;;5038439;28;20574;-67
2020/12/10 11:40:40;;;;;;;22.42;13.50;;;4.30;99.90;;;;;;5034233;28;20507;-67
2020/12/10 11:43:06;;;;;;;28.70;14.93;;;4.20;99.90;;;;;;5036506;28;20171;-67
2020/12/10 11:45:32;;;;;;;38.38;18.52;;;4.30;99.90;;;;;;5038443;28;20411;-68
2020/12/10 11:48:03;;;;;;;36.72;18.33;;;4.40;99.90;;;;;;5038382;28;20040;-67
2020/12/10 11:50:31;;;;;;;42.47;22.80;;;4.40;99.90;;;;;;5036840;28;20495;-67
2020/12/10 11:52:57;;;;;;;49.25;24.25;;;4.40;99.90;;;;;;5009887;28;20040;-67
2020/12/10 11:55:22;;;;;;;48.55;24.70;;;4.40;99.90;;;;;;5038552;28;20021;-67
2020/12/10 11:57:49;;;;;;;43.95;23.25;;;4.40;99.90;;;;;;5038903;28;20446;-67
2020/12/10 12:00:15;;;;;;;49.55;23.73;;;4.40;99.90;;;;;;5037464;28;20116;-67
2020/12/10 12:02:41;;;;;;;36.25;20.48;;;4.40;99.90;;;;;;5035892;28;20043;-67
2020/12/10 12:05:08;;;;;;;37.05;20.83;;;4.50;99.90;;;;;;5037430;28;20029;-67
2020/12/10 12:07:34;;;;;;;39.92;19.35;;;4.50;99.90;;;;;;5037934;28;20041;-68
2020/12/10 12:10:00;;;;;;;34.88;19.08;;;4.50;99.90;;;;;;5037175;28;20009;-67
2020/12/10 12:12:26;;;;;;;32.42;18.05;;;4.50;99.90;;;;;;5037696;28;20029;-68
2020/12/10 12:14:52;;;;;;;33.03;16.05;;;4.40;99.90;;;;;;5036026;28;20461;-67
2020/12/10 12:17:18;;;;;;;27.70;16.80;;;4.50;99.90;;;;;;5035368;28;20036;-67
2020/12/10 12:19:44;;;;;;;33.47;16.85;;;4.50;99.90;;;;;;5037766;28;20148;-67
2020/12/10 12:22:09;;;;;;;32.95;17.90;;;4.40;99.90;;;;;;5035015;28;20465;-67
2020/12/10 12:24:35;;;;;;;27.75;16.55;;;4.40;99.90;;;;;;5033292;28;20412;-67
2020/12/10 12:27:05;;;;;;;32.80;17.30;;;4.50;99.90;;;;;;5036549;28;20575;-67
2020/12/10 12:29:31;;;;;;;27.65;16.40;;;4.40;99.90;;;;;;5036233;28;20040;-67
2020/12/10 12:31:57;;;;;;;29.20;16.17;;;4.40;99.90;;;;;;5038181;28;20040;-67
2020/12/10 12:34:23;;;;;;;30.13;17.65;;;4.40;99.90;;;;;;5035417;28;20025;-67
2020/12/10 12:36:49;;;;;;;30.70;16.17;;;4.40;99.90;;;;;;5036575;28;20059;-67
2020/12/10 12:39:15;;;;;;;35.00;16.65;;;4.40;99.90;;;;;;5030346;28;20429;-67
2020/12/10 12:41:41;;;;;;;34.30;17.70;;;4.40;99.90;;;;;;5037062;28;20033;-67
2020/12/10 12:44:07;;;;;;;28.13;16.20;;;4.40;99.90;;;;;;5036034;28;20094;-67